Informes de METAR cercanos

 

LEXJ - Santander/Parayas, Spain
Distance from station: ESE 6km
Actualización: 22/09/2021 14:30
Few Clouds
Few Clouds
 Viento del NNE
Viento: NNE 2 km/h
Temperatura: 20°C
Rocío: 16°C
Humedad: 78%
Barómetro: 1023 hPa
Clouds: Few Clouds
Visibility: 10 km
Cloud details: Few Clouds 610 m
2021/09/22 12:30 LEXJ 221230Z 03001KT 9999 FEW020 20/16 Q1023
LEBB - Bilbao/Sondica, Spain
Distance from station: ESE 80km
Actualización: 22/09/2021 14:30
Parcialmente nuboso
Parcialmente nuboso
 Viento del NE
Viento: NE 9 km/h
Temperatura: 21°C
Rocío: 16°C
Humedad: 73%
Barómetro: 1023 hPa
Clouds: Parcialmente nuboso
Visibility: 8 km
Cloud details: Parcialmente nuboso 671 m
2021/09/22 12:30 LEBB 221230Z 04005KT 330V070 8000 SCT022 21/16 Q1023 NOSIG
 
LEBL - Barcelona Airpor, Spain
Distance from station: ESE 726km
Actualización: 22/09/2021 14:30
Few Clouds
Few Clouds
 Viento del ENE
Viento: ENE 31 km/h
Temperatura: 24°C
Rocío: 14°C
Humedad: 54%
Barómetro: 1020 hPa
Clouds: Few Clouds
Visibility: 10 km
Cloud details: Few Clouds 914 m
2021/09/22 12:30 LEBL 221230Z 07017KT 9999 FEW030 24/14 Q1020 NOSIG
LEMD - Madrid/Barajas, Spain
Distance from station: S 325km
Actualización: 22/09/2021 14:30
Few Clouds
Few Clouds
 Viento del N
Viento: N 15 km/h
Temperatura: 17°C
Rocío: 11°C
Humedad: 68%
Barómetro: 1021 hPa
Clouds: Few Clouds
Visibility: 10 km
Cloud details: Few Clouds 1524 m
2021/09/22 12:30 LEMD 221230Z 35008KT 9999 FEW050 17/11 Q1021 NOSIG
 
LPPT - Lisbon/Portela, Portugal
Distance from station: SO 663km
Actualización: 22/09/2021 14:30
Few Clouds
Few Clouds
 Viento del ENE
Viento: ENE 17 km/h
Temperatura: 26°C
Rocío: 10°C
Humedad: 37%
Barómetro: 1016 hPa
Clouds: Few Clouds
Visibility: 10 km
Cloud details: Few Clouds 1372 m
2021/09/22 12:30 LPPT 221230Z 06009KT 020V100 9999 FEW045 26/10 Q1016
LECO - La Coruna/Alvedr, Spain
Distance from station: O 349km
Actualización: 22/09/2021 14:30
Few Clouds
Few Clouds
 Viento del NE
Viento: NE 24 km/h
Temperatura: 21°C
Rocío: 14°C
Humedad: 64%
Barómetro: 1022 hPa
Clouds: Few Clouds
Visibility: 10 km
Cloud details: Few Clouds 1067 m
2021/09/22 12:30 LECO 221230Z 04013KT 010V070 9999 FEW035 21/14 Q1022 NOSIG
 
LEST - Santiago/Labacol, Spain
Distance from station: O 358km
Actualización: 22/09/2021 14:30
Parcialmente nuboso
Parcialmente nuboso
 Viento del NE
Viento: NE 20 km/h
Temperatura: 20°C
Rocío: 11°C
Humedad: 56%
Barómetro: 1022 hPa
Clouds: Parcialmente nuboso
Visibility: 10 km
Cloud details: Few Clouds 823 m
Parcialmente nuboso 1250 m
2021/09/22 12:30 LEST 221230Z 05011KT 020V120 9999 FEW027 SCT041 20/11 Q1022 NOSIG
EBBR - Brussels International Airport, Belgium
Distance from station: O 1339km
Actualización: 22/09/2021 14:50
Despejado
Despejado
 Viento del varies
Viento: varies 4 km/h
Temperatura: 20°C
Rocío: 8°C
Humedad: 46%
Barómetro: 1028 hPa
Resumen: Despejado
Visibility: greater than 10 km
2021/09/22 12:50 EBBR 221250Z VRB02KT CAVOK 20/08 Q1028 NOSIG